Joaquín Méndez

Jefe de ojeadores - Huracán
3 Dic 2028
Domingo
Continuar

Personalidad

Adaptabilidad (10) Ambición (18) Controversia (11) Lealtad (16) Presión (9) Profesionalismo (18) Deportividad (7) Temperamento (15)

Perfil

Estilo de dirección Democrático
Licencia Continental C
Determinación 10
Gestión de personas 9
Motivación 8
Disciplina 10
Satisfacción laboral
100%
Fatiga
0%
Cargo Jefe de ojeadores
Salario 97.5K p/s
Contrato 14.03.2029

Rendimiento

Comportamiento Bueno
Efectividad del entrenamiento
36%
Desarrollo de jugadores
45%
Prevención de lesiones
45%
Implementación táctica
40%

Eventos recientes

Asistió a una reunión de captación ahora
Recomendó un objetivo de fichaje ahora
Recomendó un objetivo de fichaje ahora
Recomendó un objetivo de fichaje ahora
Recomendó un objetivo de fichaje ahora
Recomendó un objetivo de fichaje 7d atrás
Recomendó un objetivo de fichaje 7d atrás
Recomendó un objetivo de fichaje 7d atrás

Actualmente siguiendo

279
Jugador Club Estado Habilidad Confianza Observado Última observación Último voto
Franco Vázquez Argentinos Juniors Informe listo 111 / 114 65% 1 02.12.2028 -
Mohamed-Ali Cho Hull City Activo 139 / 156 40% 3 30.11.2028 -
Yousef Salech Cardiff City Activo 127 / 134 40% 3 30.11.2028 -
Asier Villalibre Racing Santander Activo 127 / 125 40% 1 30.11.2028 -
Thomas Oliveri Defensa y Justicia Activo 100 / 103 62% 1 03.07.2028 Aprobar
Facundo Báez Argentinos Juniors Activo 111 / 110 62% 1 19.06.2028 Aprobar
Richard Koné Queens Park Rangers Activo 131 / 132 40% 2 12.06.2028 -
Taiwo Awoniyi Middlesbrough Activo 133 / 139 40% 1 12.06.2028 -
Henrique Carmo Sochi Activo 129 / 127 40% 2 05.06.2028 -
Augusto Bando Ascoli Activo 112 / 108 40% 2 31.05.2028 -
Musa Danjuma Umraniyespor Activo 105 / 92 40% 1 31.05.2028 -
Sindre Walle Egeli Udinese Activo 138 / 139 40% 6 30.05.2028 -
Eli Junior Kroupi Bournemouth Activo 149 / 144 40% 3 30.05.2028 -
Ryan McAidoo Oldham Athletic Activo 119 / 126 40% 5 29.05.2028 -
Amin Nabizada Exeter City Activo 120 / 119 40% 1 29.05.2028 -
Igor Tyjon Barrow AFC Activo 124 / 129 40% 3 24.05.2028 -
Rio Ngumoha Plymouth Argyle Activo 147 / 139 40% 2 24.05.2028 -
Leo Pecover Swindon Town Activo 109 / 118 40% 1 23.05.2028 -
Trey Nyoni Rotherham United Activo 129 / 140 40% 3 22.05.2028 -
André Miranda Porto Activo 123 / 131 40% 2 22.05.2028 -
Gabriel Mec Feirense Activo 141 / 122 40% 2 20.05.2028 -
Shea Lacey Crystal Palace Activo 142 / 142 40% 1 17.05.2028 -
Giovanni Cantizano Fulham Activo 110 / 127 40% 2 16.05.2028 -
Kerim Alajbegović Modena Activo 124 / 127 40% 2 13.05.2028 -
İsak Vural Audace Cerignola Activo 114 / 119 40% 1 08.05.2028 -
Luca Williams-Barnett Walsall Activo 110 / 121 40% 1 04.05.2028 -
Jake Evans Crewe Alexandra Activo 120 / 121 40% 1 03.05.2028 -
Tyler Fletcher Rotherham United Activo 111 / 120 40% 4 02.05.2028 -
Omar Khedr Gillingham Activo 127 / 114 40% 1 02.05.2028 -
Josh Nichols Oldham Athletic Activo 108 / 133 40% 9 01.05.2028 -
Giovanni Leoni Lincoln City Activo 143 / 146 40% 1 26.04.2028 -
Andrea Cogoni Cosenza Activo 98 / 103 40% 1 26.04.2028 -
Daniel Banjaqui Benfica Activo 119 / 128 40% 4 24.04.2028 -
Kiani Inge Groningen Activo 109 / 116 40% 1 24.04.2028 -
Jorthy Mokio ADO Den Haag Activo 123 / 131 40% 3 20.04.2028 -
Kelian Le Pironnec Mirandés Activo 86 / 109 40% 1 20.04.2028 -
Andrea Bertoncini Triestina Activo 105 / 105 40% 1 19.04.2028 -
Miguel Figueiredo Benfica Activo 113 / 138 40% 2 18.04.2028 -
Makar Vysochenko Spartak Moscow Activo 94 / 92 40% 2 16.04.2028 -
Eko Solomon Leixões Activo 77 / 79 40% 2 13.04.2028 -
Andrey Ivlev Nizhniy Novgorod Activo 113 / 130 40% 1 09.04.2028 -
Claudio Martey Pianese Activo 83 / 83 40% 1 08.04.2028 -
Matvey Bardachev Zenit Activo 109 / 110 40% 1 06.04.2028 -
Gustavo Albarracín Alavés Activo 130 / 114 40% 1 05.04.2028 -
Thiago Silvero Vélez Activo 131 / 124 40% 1 05.04.2028 -
Olivier Leroux Mouscron Activo 90 / 104 40% 2 20.03.2028 -
Victor Hernandez Santa Fe Activo 114 / 118 40% 1 20.03.2028 -
Josh Acheampong Everton Activo 136 / 157 40% 4 18.03.2028 -
Ayden Heaven Portsmouth Activo 144 / 143 40% 3 16.03.2028 -
Martim Cunha Porto Activo 100 / 103 40% 1 13.03.2028 -
Honest Ahanor Atalanta Activo 126 / 151 40% 2 17.02.2028 -
Christos Mouzakitis Hull City Activo 126 / 136 40% 2 12.02.2028 -
Ruben Ramos LA Galaxy Activo 91 / 99 40% 2 11.02.2028 -
Ben Broggio Mansfield Town Activo 120 / 102 40% 3 10.02.2028 -
Gabe Forsyth Colchester United Activo 110 / 128 40% 1 09.02.2028 -
Babis Kostoulas Oxford United Activo 134 / 147 40% 1 08.02.2028 -
Benjamín Rodríguez Albion Activo 79 / 97 40% 2 06.02.2028 -
Francisco Marchant Colo-Colo Activo 91 / 108 40% 2 06.02.2028 -
Matvey Ivanov Zenit Activo 88 / 92 40% 1 05.02.2028 -
Ibrahim Fullah Charlton Athletic Activo 133 / 143 40% 1 02.02.2028 -
Lander Astiazarán Real Sociedad Activo 121 / 110 40% 2 31.01.2028 -
Ryan Kavuma-McQueen Accrington Stanley Activo 124 / 132 40% 1 28.01.2028 -
Pedro Baltika Activo 127 / 131 40% 1 26.01.2028 -
Giovanni Baroni Talleres Activo 110 / 126 40% 2 25.01.2028 -
Romelle Donovan Brentford Activo 139 / 142 40% 1 20.01.2028 -
Alex Verón Vélez Negociando 115 / 125 40% 1 19.01.2028 -
Bazoumana Touré Newcastle United Activo 135 / 154 40% 1 19.01.2028 -
Juan Camilo Córdoba Deportivo Pereira Activo 93 / 96 40% 1 13.01.2028 -
Mateus Mané Burnley Activo 142 / 141 40% 1 11.01.2028 -
Valentino Acuña Newell's Old Boys Activo 119 / 122 40% 1 09.01.2028 -
Lewis Orford Crewe Alexandra Activo 98 / 114 40% 1 05.01.2028 -
Nestory Irankunda Watford Activo 113 / 125 40% 1 03.01.2028 -
Nicolás Ferreira Artigas Activo 88 / 88 40% 1 03.01.2028 -
Joaquín Bigo Tristán Suárez Activo 97 / 98 62% 1 01.12.2027 Aprobar
Ignacio Fernández Boston River Activo 99 / 98 40% 1 01.12.2027 -
Kevin Zenón Boca Juniors Activo 135 / 131 40% 1 30.11.2027 -
Evgeny Latyshonok Nizhniy Novgorod Activo 137 / 131 40% 3 28.11.2027 -
Alexei Rojas Fedorushchenko Barrow AFC Activo 133 / 125 40% 1 28.11.2027 -
Jack Walton Preston Activo 135 / 134 40% 1 23.11.2027 -
Zion Suzuki Aston Villa Activo 156 / 144 40% 1 21.11.2027 -
Carl Rushworth Aston Villa Activo 155 / 152 40% 1 21.11.2027 -
Alex Meret Napoli Activo 149 / 166 40% 7 19.11.2027 -
Radek Vítek Middlesbrough Activo 149 / 139 40% 1 19.11.2027 -
Brandon Austin Brighton Activo 124 / 148 40% 1 18.11.2027 -
Vladan Kovačević Norwich City Activo 132 / 126 40% 2 16.11.2027 -
Lukáš Horníček Burnley Activo 158 / 155 40% 2 15.11.2027 -
Oliver Dovin Coventry City Activo 131 / 137 40% 1 15.11.2027 -
Caoimhin Kelleher Brentford Activo 169 / 169 40% 1 12.11.2027 -
Ezequiel Centurión River Plate Activo 128 / 133 40% 2 09.11.2027 -
Josh Keeley Luton Town Activo 126 / 135 40% 1 09.11.2027 -
Emiliano González Almagro Activo 109 / 114 40% 3 07.11.2027 -
Elia Caprile Cagliari Activo 141 / 140 40% 3 07.11.2027 -
Mads Hermansen West Ham United Activo 138 / 134 40% 2 06.11.2027 -
Anthony Patterson Wrexham Activo 151 / 139 40% 1 06.11.2027 -
James Trafford Leeds United Activo 145 / 139 40% 1 05.11.2027 -
Justin Bijlow Atalanta Activo 147 / 146 40% 1 29.10.2027 -
Vanja Milinković-Savić Atalanta Activo 163 / 140 40% 2 28.10.2027 -
Lucas Chevalier AC Milan Activo 174 / 174 40% 1 28.10.2027 -
Cristian Rivero Real Sociedad Activo 132 / 137 40% 7 26.10.2027 -
Esteban Glellel Quilmes Activo 110 / 110 40% 2 22.10.2027 -
Ilja Pomazun Spartak Moscow Activo 111 / 120 40% 1 22.10.2027 -
Temirlan Anarbekov Kairat Activo 117 / 108 40% 2 18.10.2027 -
Federico Losas Chacarita Juniors Activo 109 / 120 40% 3 16.10.2027 -
Abduvohid Ne'matov Nasaf Activo 126 / 111 40% 4 15.10.2027 -
Luciano Jachfe Nueva Chicago Activo 111 / 125 40% 3 14.10.2027 -
Ignacio Chicco Aldosivi Activo 114 / 113 40% 3 13.10.2027 -
Riccardo Gagno Vicenza Activo 114 / 130 40% 1 12.10.2027 -
Nicolás Sumavil Platense Activo 122 / 113 40% 2 08.10.2027 -
Mile Svilar AS Roma Activo 163 / 179 40% 1 04.10.2027 -
Jonathan Klinsmann Cesena Activo 129 / 119 40% 1 03.10.2027 -
Anton Mitryushkin Lokomotiv Moscow Activo 109 / 129 40% 2 01.10.2027 -
Renato Solís Sporting Cristal Activo 136 / 131 40% 2 28.09.2027 -
Leandro Brey Boca Juniors Activo 123 / 137 40% 2 23.09.2027 -
Emil Audero Como Activo 140 / 147 40% 2 19.09.2027 -
Christos Mandas Lazio Activo 149 / 155 40% 4 07.09.2027 -
Maxim Borisko CSKA Moscow Activo 140 / 134 40% 1 06.09.2027 -
Lautaro Morales Lanús Activo 121 / 120 40% 1 30.08.2027 -
Victor Aznar Sevilla Activo 122 / 128 40% 1 29.08.2027 -
Federico Ravaglia Bologna Activo 155 / 144 40% 1 17.08.2027 -
Matías Tagliamonte Racing Club Activo 110 / 127 40% 1 15.08.2027 -
Rustam Yatimov Rostov Activo 105 / 108 40% 1 12.08.2027 -
Adrian Šemper Al-Fateh Activo 125 / 126 40% 1 08.08.2027 -
Martin Zlomislić Qarabag Activo 135 / 110 40% 1 05.08.2027 -
Luis Ingolotti Atlético Tucumán Activo 137 / 117 40% 1 03.08.2027 -
Josep Martínez Inter Activo 132 / 138 40% 1 02.08.2027 -
Leandro Martins Benfica Activo 83 / 101 40% 1 28.06.2027 -
Bernardo Lima Porto Activo 98 / 110 40% 1 15.06.2027 -
Gonçalo Oliveira Benfica Activo 113 / 108 40% 1 03.06.2027 -
Luiz Henrique AS Roma Activo 142 / 143 68% 1 01.06.2027 Aprobar
Billy Gilmour Napoli Activo 144 / 140 40% 1 31.05.2027 -
Matías Soulé AS Roma Activo 158 / 160 40% 2 28.05.2027 -
Emanuele Scipioni Monopoli Activo 110 / 117 40% 1 28.05.2027 -
Mehdi Dorval Catanzaro Activo 130 / 137 40% 1 24.05.2027 -
Giorgi Tsitaishvili Rayo Vallecano Activo 137 / 127 40% 1 24.05.2027 -
Arthur Atta Fiorentina Activo 154 / 145 40% 2 23.05.2027 -
Mikael Egill Ellertsson Genoa Activo 145 / 125 40% 1 19.05.2027 -
Bongani Zungu Ajax Cape Town Activo 113 / 117 40% 3 18.05.2027 -
Giorgos Koutsias Famalicao Activo 114 / 111 40% 1 17.05.2027 -
Mitchel Bakker Modena Activo 145 / 133 40% 2 16.05.2027 -
Cher Ndour Fiorentina Activo 130 / 144 40% 1 14.05.2027 -
Giacomo Raspadori Atalanta Activo 149 / 149 40% 2 12.05.2027 -
Giorgi Kvernadze Frosinone Activo 132 / 120 40% 1 12.05.2027 -
Nuno Tavares Lazio Activo 156 / 137 40% 1 11.05.2027 -
Raoul Bellanova Atalanta Activo 141 / 158 40% 1 11.05.2027 -
John Yeboah Venezia Activo 119 / 132 40% 1 10.05.2027 -
Diego Gómez Brighton Activo 132 / 149 40% 2 08.05.2027 -
Adrián Bernabé Parma Activo 127 / 146 40% 1 08.05.2027 -
Lucas Da Cunha Como Activo 143 / 149 40% 2 07.05.2027 -
Pontus Almqvist Parma Activo 138 / 136 40% 2 07.05.2027 -
Nicolò Zaniolo Udinese Activo 150 / 146 40% 2 05.05.2027 -
Job Ochieng Real Sociedad Activo 109 / 105 40% 2 26.04.2027 -
Stiven Shpendi Empoli Activo 132 / 134 40% 1 26.04.2027 -
Camillo Tavernelli Arezzo Activo 129 / 109 40% 2 22.04.2027 -
Martin Baturina Como Activo 130 / 149 40% 1 22.04.2027 -
Ekain Orobengoa Real Sociedad Activo 91 / 115 40% 1 22.04.2027 -
Antoine Bernede Hellas Verona Activo 131 / 114 40% 1 16.04.2027 -
Marquinhos Spartak Moscow Activo 120 / 132 40% 3 13.04.2027 -
Savinho Tottenham Activo 164 / 157 40% 1 11.04.2027 -
Tommaso Pobega Bologna Activo 129 / 132 40% 1 09.04.2027 -
Hannibal Burnley Activo 127 / 116 40% 1 04.04.2027 -
Unai Gómez Udinese Activo 147 / 134 40% 2 03.04.2027 -
Mohau Nkota Al-Ettifaq Activo 122 / 132 40% 1 30.03.2027 -
Joe Gelhardt Hull City Activo 119 / 141 40% 5 26.03.2027 -
Chemsdine Talbi Sunderland Activo 137 / 159 40% 4 26.03.2027 -
Juanlu Bournemouth Activo 157 / 158 40% 1 24.03.2027 -
Marcelo Allende Mamelodi Sundowns Activo 124 / 125 40% 6 23.03.2027 -
Manor Solomon West Ham United Activo 150 / 149 40% 3 22.03.2027 -
Jack Rudoni Coventry City Activo 119 / 134 40% 2 22.03.2027 -
Alex Scott Bournemouth Activo 162 / 155 40% 1 21.03.2027 -
Wilson Isidor Sunderland Activo 129 / 129 40% 3 20.03.2027 -
Óscar Mingueza Crystal Palace Activo 147 / 155 40% 1 19.03.2027 -
Wandile Duba ASO Chlef Activo 113 / 108 40% 1 19.03.2027 -
Jacob Ramsey Newcastle United Activo 159 / 142 40% 1 17.03.2027 -
Oswin Appollis Orlando Pirates Activo 109 / 118 40% 1 13.03.2027 -
Osher Davida Maccabi Tel Aviv Activo 112 / 129 40% 1 09.03.2027 -
Yehor Yarmoliuk Brentford Activo 133 / 151 40% 1 09.03.2027 -
Marcel Ruiz Crystal Palace Activo 135 / 134 40% 2 07.03.2027 -
Malik Mothersille Stockport County Activo 102 / 118 40% 2 06.03.2027 -
Nazar Voloshyn Dynamo Kyiv Activo 142 / 137 40% 1 03.03.2027 -
James Garner Everton Activo 136 / 159 40% 1 03.03.2027 -
Yeremy Pino Crystal Palace Activo 154 / 137 40% 1 01.03.2027 -
Oston O'runov Persepolis Activo 130 / 110 40% 2 27.02.2027 -
Ivo Mammini Beitar Jerusalem Activo 125 / 119 40% 2 26.02.2027 -
Nicolas Jackson Aston Villa Activo 158 / 146 40% 2 26.02.2027 -
Lorent Tolaj Plymouth Argyle Activo 111 / 123 40% 1 25.02.2027 -
Matt O'Riley Brighton Activo 150 / 140 40% 1 19.02.2027 -
Amine Adli Bournemouth Activo 134 / 140 40% 1 18.02.2027 -
Adam Wharton Crystal Palace Activo 144 / 145 40% 1 18.02.2027 -
Brian Brobbey Sunderland Activo 149 / 146 40% 1 18.02.2027 -
Derensili Sanches Fernandes Huddersfield Town Activo 118 / 128 40% 2 12.02.2027 -
Boubacar Kamara Aston Villa Activo 163 / 162 40% 1 11.02.2027 -
Kevin Fulham Activo 152 / 143 40% 1 07.02.2027 -
Fábio Carvalho Brentford Activo 128 / 131 40% 1 04.02.2027 -
Jacques Siwe Rubin Activo 125 / 102 40% 2 03.02.2027 -
Etiosa Ighodaro Kaizer Chiefs Activo 119 / 113 40% 1 03.02.2027 -
Majid Moharrami Rah Ahan Activo 113 / 101 40% 1 02.02.2027 -
Thiago Brentford Activo 132 / 144 40% 1 01.02.2027 -
Ilyas Ansah Hull City Activo 129 / 126 40% 2 23.01.2027 -
Vyacheslav Grulev Nizhniy Novgorod Activo 112 / 100 40% 1 23.01.2027 -
Darlin Yongwa Norwich City Activo 110 / 121 40% 1 19.01.2027 -
Petar Stanić Ludogorets Activo 143 / 143 40% 2 18.01.2027 -
Scott Twine Bristol City Activo 129 / 109 40% 1 18.01.2027 -
Ali Ahmed Norwich City Activo 112 / 132 40% 1 13.01.2027 -
Alex Robertson Cardiff City Activo 117 / 108 40% 1 11.01.2027 -
Andre Brooks Sheffield United Activo 129 / 114 40% 2 08.01.2027 -
Bobby Clark Derby County Activo 123 / 128 40% 1 08.01.2027 -
André Wolverhampton Activo 158 / 139 40% 1 07.01.2027 -
Habib Diarra Sunderland Activo 154 / 156 40% 1 07.01.2027 -
Tyrese Campbell Sheffield United Activo 122 / 116 40% 2 05.01.2027 -
Lorenzo Colombo Genoa Activo 147 / 141 40% 1 05.01.2027 -
Welington Southampton Activo 118 / 135 40% 1 05.01.2027 -
Sam Greenwood Bristol City Activo 112 / 106 40% 1 04.01.2027 -
Esequiel Barco Spartak Moscow Activo 138 / 151 40% 1 29.12.2026 -
Armstrong Oko-Flex Levski Activo 107 / 133 40% 1 29.12.2026 -
Ola Brynhildsen Rapid Wien Activo 132 / 127 40% 1 01.12.2026 -
Ianis Hagi Alanyaspor Activo 123 / 120 40% 1 22.11.2026 -
Luis Caicedo Spartak 1918 Activo 99 / 100 40% 1 20.11.2026 -
Efraín Álvarez Aston Villa Activo 136 / 122 40% 1 18.11.2026 -
Ferland Mendy Real Madrid Activo 148 / 134 40% 2 17.11.2026 -
Edu Expósito Espanyol Activo 131 / 145 40% 3 17.11.2026 -
Oli McBurnie Hull City Activo 131 / 139 40% 2 17.11.2026 -
Martín Ojeda Orlando City Activo 137 / 124 40% 3 16.11.2026 -
Jason Knight Bristol City Activo 117 / 115 40% 1 15.11.2026 -
Jens Petter Hauge Bodo/Glimt Activo 136 / 153 40% 1 14.11.2026 -
Fiete Arp OB Activo 119 / 123 40% 3 13.11.2026 -
Matías Laurino Gornik Leczna Activo 84 / 94 40% 1 13.11.2026 -
Dwight McNeil Crystal Palace Activo 136 / 149 40% 2 10.11.2026 -
Ignacio Russo Tigre Activo 124 / 125 40% 1 07.11.2026 -
Marezi Portsmouth Activo 108 / 137 40% 1 07.11.2026 -
Hwang Hee-Chan Wolverhampton Activo 123 / 132 40% 2 05.11.2026 -
Talles Magno New York City Activo 120 / 119 40% 1 05.11.2026 -
Tatsuhiro Sakamoto Coventry City Activo 126 / 134 40% 1 03.11.2026 -
Leo Ceara Kashima Antlers Activo 151 / 148 40% 4 01.11.2026 -
Tiago Palacios Estudiantes Activo 129 / 134 40% 2 29.10.2026 -
Kévin Denkey FC Cincinnati Activo 131 / 128 40% 1 24.10.2026 -
Franco Cristaldo Talleres Activo 131 / 128 40% 1 22.10.2026 -
Nicolò Tresoldi Club Brugge Activo 118 / 118 40% 2 20.10.2026 -
Alexander Aravena Portland Timbers Activo 112 / 129 40% 2 18.10.2026 -
Reda Khadra Qarabag Activo 126 / 142 40% 1 18.10.2026 -
Tomás Molina Argentinos Juniors Activo 126 / 125 40% 4 13.10.2026 -
Domagoj Drožđek Tractor Activo 114 / 134 40% 1 13.10.2026 -
Zian Flemming Ipswich Town Activo 125 / 134 40% 1 11.10.2026 -
Allan Saint-Maximin Charlotte Football Club Activo 135 / 142 40% 1 11.10.2026 -
Majid Jahanbakhsh Rah Ahan Activo 123 / 123 40% 1 11.10.2026 -
Juninho Pumas UNAM Activo 131 / 132 40% 2 08.10.2026 -
Morgan Guilavogui Real Salt Lake Activo 128 / 118 40% 2 07.10.2026 -
Myrto Uzuni Austin FC Activo 145 / 146 40% 4 05.10.2026 -
Dániel Gazdag New England Revolution Activo 143 / 119 40% 1 05.10.2026 -
Josh Sargent Toronto FC Activo 143 / 115 40% 2 04.10.2026 -
Carlos Álvarez Club America Activo 137 / 140 40% 1 01.10.2026 -
Jordan Morris Seattle Sounders Activo 138 / 118 40% 1 29.09.2026 -
Jesus Ferreira Seattle Sounders Activo 135 / 122 40% 1 28.09.2026 -
Timo Werner San Jose Earthquakes Activo 130 / 120 40% 1 27.09.2026 -
Edwuin Cetré Estudiantes Activo 127 / 118 40% 1 27.09.2026 -
Erik Lira Cruz Azul Activo 131 / 128 40% 1 26.09.2026 -
Bryan González Guadalajara Activo 136 / 135 40% 1 25.09.2026 -
Richard Ledezma Guadalajara Activo 138 / 145 40% 1 23.09.2026 -
Ismael Díaz Leon Activo 116 / 136 40% 2 21.09.2026 -
Wessam Abou Ali Columbus Crew Activo 115 / 127 40% 1 21.09.2026 -
Alejandro Zendejas Club America Activo 131 / 128 40% 2 18.09.2026 -
Duncan McGuire Houston Dynamo Activo 121 / 125 40% 1 18.09.2026 -
Sergi Cardona KAA Gent Activo 149 / 143 40% 1 16.09.2026 -
Esteban Obregón Montevideo City Torque Activo 121 / 123 40% 1 15.09.2026 -
Sebastián Córdova Pumas UNAM Activo 140 / 117 40% 1 13.09.2026 -
Enzo Cabrera Danubio Activo 104 / 103 40% 1 10.09.2026 -
Agustín Paz Progreso Activo 112 / 116 40% 1 10.09.2026 -
Rafael Santos Borré River Plate Activo 124 / 133 40% 1 10.09.2026 -
Pep Biel Charlotte Football Club Activo 136 / 129 40% 1 07.09.2026 -
Federico Viñas Toluca Activo 111 / 125 40% 1 07.09.2026 -
Steven Bergwijn Al-Ittihad Activo 161 / 131 40% 1 02.09.2026 -
Kelvin Yeboah Minnesota United FC Activo 110 / 117 40% 1 31.08.2026 -
Maurits Kjærgaard Red Bull Salzburg Activo 138 / 132 40% 1 28.08.2026 -
Hugo Cuypers Monterrey Activo 142 / 120 40% 1 22.08.2026 -
Juan Dinenno Pumas UNAM Activo 126 / 136 40% 1 18.08.2026 -
Álex Arce Independiente Rivadavia Activo 121 / 135 40% 1 17.08.2026 -
Milton Giménez Boca Juniors Activo 133 / 123 40% 1 15.08.2026 -
Dejan Joveljić Seattle Sounders Activo 115 / 135 40% 1 14.08.2026 -
Aune Heggebø West Bromwich Albion Activo 121 / 141 40% 1 05.08.2026 -
Agustín Palavecino Cruz Azul Activo 143 / 133 40% 1 03.08.2026 -